< < Back
Terminal Aerodrome Forecast


Current Version              Previous Versions:   1  2  3  4  5  6  7  8  9  

Terminal Aerodrome Forecast

070
FTUS44 KBMX 240100 AAA
TAFANB
TAF AMD
KANB 240101Z 2401/2424 21010KT P6SM BKN025 OVC040
      TEMPO 2402/2405 BKN015
     FM240500 21007KT 4SM BR SCT007 OVC015
     FM241500 24012KT P6SM OVC020
     FM241800 27014KT P6SM SCT020 BKN100=

Latest METAR

571
SAUS70 KWBC 240400
MTRANB
METAR KANB 240353Z AUTO 22009KT 10SM BKN020 BKN027 OVC032 17/13 A2971
RMK AO2 SLP058 T01720133 $


USA.gov is the U.S. government's official web portal to all federal, state and local government web resources and services.